Time;durP1;ratioP1;P1;durP2;ratioP2;P2;SDS_P1;SDS_P2;PMS_P1;PMS_P2;Temp;Humidity;BMP_temperature;BMP_pressure;BME280_temperature;BME280_humidity;BME280_pressure;Samples;Min_cycle;Max_cycle;Signal;HPM_P1;HPM_P2
2022/10/29 00:02:02;;;;;;;52.90;19.90;;;;;;;15.81;60.05;100897.78;4465656;31;20151;-95
2022/10/29 00:04:28;;;;;;;59.10;20.80;;;;;;;15.82;60.04;100897.72;4464924;32;21950;-94
2022/10/29 00:06:53;;;;;;;58.03;20.20;;;;;;;16.13;60.06;100900.12;4487317;31;20124;-96
2022/10/29 00:09:19;;;;;;;64.28;21.60;;;;;;;15.78;60.03;100897.87;4476435;31;20416;-95
2022/10/29 00:11:44;;;;;;;52.40;19.75;;;;;;;15.87;60.05;100901.06;4473152;32;20893;-96
2022/10/29 00:14:09;;;;;;;69.43;22.92;;;;;;;15.72;60.04;100893.72;4473119;31;20141;-94
2022/10/29 00:16:36;;;;;;;63.38;21.08;;;;;;;15.78;60.04;100898.75;4471194;32;21822;-93
2022/10/29 00:19:03;;;;;;;70.28;22.42;;;;;;;15.84;60.04;100893.25;4470822;31;20115;-94
2022/10/29 00:21:28;;;;;;;64.15;20.67;;;;;;;15.86;60.04;100894.09;4463957;32;20122;-96
2022/10/29 00:23:53;;;;;;;66.35;20.50;;;;;;;15.91;60.05;100899.19;4470970;31;30089;-93
2022/10/29 00:26:20;;;;;;;56.40;19.15;;;;;;;15.96;60.05;100895.47;4464247;31;20262;-94
2022/10/29 00:28:46;;;;;;;62.88;20.25;;;;;;;16.05;60.06;100893.41;4470018;31;20072;-96
2022/10/29 00:31:13;;;;;;;56.60;19.55;;;;;;;15.75;60.04;100898.84;4465970;31;20161;-96
2022/10/29 00:33:38;;;;;;;55.53;20.75;;;;;;;15.85;60.04;100895.00;4464055;31;20159;-95
2022/10/29 00:36:06;;;;;;;55.90;19.65;;;;;;;15.74;60.04;100894.50;4462704;31;20108;-94
2022/10/29 00:38:32;;;;;;;53.03;18.00;;;;;;;15.74;60.04;100906.78;4473338;32;20088;-95
2022/10/29 00:40:57;;;;;;;62.00;19.87;;;;;;;15.63;60.04;100897.53;4469582;31;20156;-96
2022/10/29 00:43:24;;;;;;;61.47;19.65;;;;;;;15.67;60.03;100903.53;4463902;32;20603;-96
2022/10/29 00:45:51;;;;;;;61.65;19.77;;;;;;;15.79;60.05;100896.97;4469303;32;20105;-96
2022/10/29 00:48:17;;;;;;;54.03;19.12;;;;;;;15.73;60.04;100905.06;4490137;31;20105;-96
2022/10/29 00:50:43;;;;;;;65.75;20.45;;;;;;;15.79;60.04;100892.56;4473811;32;20153;-95
2022/10/29 00:53:08;;;;;;;54.38;19.62;;;;;;;15.68;60.03;100894.72;4480503;32;20057;-95
2022/10/29 00:55:33;;;;;;;57.25;20.35;;;;;;;15.73;60.04;100897.19;4478217;32;20460;-95
2022/10/29 00:57:59;;;;;;;68.65;21.50;;;;;;;15.81;60.04;100890.75;4478606;32;21572;-96
2022/10/29 01:00:25;;;;;;;62.88;21.10;;;;;;;15.93;60.04;100892.09;4476320;31;20088;-95
2022/10/29 01:02:50;;;;;;;62.92;20.17;;;;;;;15.97;60.05;100883.19;4475035;32;20132;-95
2022/10/29 01:05:19;;;;;;;67.55;21.98;;;;;;;15.93;60.04;100887.69;4474084;32;23397;-94
2022/10/29 01:07:44;;;;;;;71.25;22.33;;;;;;;15.93;60.04;100871.94;4474825;32;20168;-95
2022/10/29 01:10:10;;;;;;;66.82;20.05;;;;;;;15.92;60.04;100874.63;4487831;32;20149;-95
2022/10/29 01:12:50;;;;;;;67.22;20.92;;;;;;;15.81;60.04;100876.75;4474081;32;20099;-94
2022/10/29 01:15:20;;;;;;;58.10;20.70;;;;;;;15.75;60.04;100874.37;4487284;32;20146;-94
2022/10/29 01:18:01;;;;;;;63.60;20.55;;;;;;;15.85;60.04;100874.00;4487315;32;20177;-95
2022/10/29 01:20:48;;;;;;;53.55;18.37;;;;;;;16.06;60.05;100867.09;4487257;32;20807;-94
2022/10/29 01:23:32;;;;;;;51.92;17.05;;;;;;;15.98;60.05;100858.66;4487438;32;20704;-94
2022/10/29 01:26:19;;;;;;;51.30;16.23;;;;;;;15.93;60.05;100857.97;4487462;32;20124;-94
2022/10/29 01:29:15;;;;;;;51.42;17.77;;;;;;;15.95;60.06;100848.25;4487096;32;20109;-95
2022/10/29 01:31:48;;;;;;;44.97;16.70;;;;;;;16.01;60.06;100855.91;4487314;32;20143;-93
2022/10/29 01:34:28;;;;;;;44.95;16.00;;;;;;;16.05;60.06;100852.25;4486665;32;20118;-93
2022/10/29 01:37:00;;;;;;;44.05;15.80;;;;;;;15.87;60.05;100852.94;4486393;32;20100;-92
2022/10/29 01:39:39;;;;;;;46.58;15.43;;;;;;;15.99;60.05;100844.59;4473608;32;20104;-93
2022/10/29 01:42:09;;;;;;;45.78;15.95;;;;;;;15.99;60.05;100839.34;4474138;31;20523;-92
2022/10/29 01:44:42;;;;;;;47.47;17.00;;;;;;;15.96;60.05;100832.44;4473334;32;20085;-91
2022/10/29 01:47:14;;;;;;;46.65;16.37;;;;;;;16.06;60.05;100827.69;4485770;31;20104;-92
2022/10/29 01:49:42;;;;;;;43.87;14.70;;;;;;;15.77;60.04;100833.16;4473275;32;20116;-92
2022/10/29 01:52:09;;;;;;;48.97;14.70;;;;;;;15.72;60.04;100829.84;4485836;32;20152;-91
2022/10/29 01:54:38;;;;;;;40.90;13.90;;;;;;;15.60;60.03;100831.13;4472898;32;20115;-92
2022/10/29 01:57:31;;;;;;;45.50;15.43;;;;;;;15.71;60.04;100831.62;4473095;32;20069;-92
2022/10/29 02:00:00;;;;;;;46.47;15.60;;;;;;;15.84;60.04;100826.75;4473359;32;20117;-91
2022/10/29 02:03:07;;;;;;;44.42;14.93;;;;;;;15.69;60.04;100824.72;4485993;31;20108;-92
2022/10/29 02:05:37;;;;;;;40.22;14.75;;;;;;;15.60;60.03;100820.63;4447565;32;20171;-91
2022/10/29 02:08:21;;;;;;;42.75;15.05;;;;;;;15.75;60.04;100832.38;4473118;32;20139;-91
2022/10/29 02:10:48;;;;;;;47.25;15.57;;;;;;;15.60;60.03;100837.25;4486780;32;20120;-93
2022/10/29 02:13:14;;;;;;;36.70;13.70;;;;;;;15.63;60.04;100839.78;4486253;31;20093;-92
2022/10/29 02:15:50;;;;;;;39.20;13.48;;;;;;;15.65;60.03;100837.09;4473538;32;20125;-93
2022/10/29 02:18:15;;;;;;;39.25;13.68;;;;;;;15.65;60.03;100826.59;4483893;31;20133;-91
2022/10/29 02:20:42;;;;;;;38.28;15.00;;;;;;;15.45;60.02;100832.50;4476801;31;20120;-93
2022/10/29 02:23:07;;;;;;;40.25;14.02;;;;;;;15.42;60.02;100837.88;4473358;32;20469;-92
2022/10/29 02:25:32;;;;;;;43.28;14.40;;;;;;;15.40;60.03;100833.59;4472259;32;27195;-92
2022/10/29 02:27:58;;;;;;;43.55;14.98;;;;;;;15.46;60.02;100828.12;4472019;32;35701;-91
2022/10/29 02:30:23;;;;;;;44.28;14.30;;;;;;;15.40;60.03;100831.81;4472542;32;20120;-92
2022/10/29 02:32:49;;;;;;;44.38;16.37;;;;;;;15.31;60.03;100830.34;4472310;32;20161;-91
2022/10/29 02:35:14;;;;;;;51.78;16.70;;;;;;;15.23;60.01;100831.53;4472399;32;22762;-91
2022/10/29 02:37:39;;;;;;;49.50;15.75;;;;;;;15.40;60.03;100837.06;4472477;32;20480;-91
2022/10/29 02:40:05;;;;;;;55.95;17.37;;;;;;;15.43;60.02;100838.72;4471609;32;31086;-92
2022/10/29 02:42:31;;;;;;;51.88;15.95;;;;;;;15.38;60.02;100832.75;4472914;32;20145;-92
2022/10/29 02:44:56;;;;;;;45.67;16.25;;;;;;;15.39;60.01;100826.63;4471909;32;26777;-93
2022/10/29 02:47:21;;;;;;;43.70;16.23;;;;;;;15.43;60.03;100826.47;4472200;32;20107;-92
2022/10/29 02:49:47;;;;;;;51.05;17.55;;;;;;;15.48;60.03;100826.31;4469915;32;26759;-91
2022/10/29 02:52:12;;;;;;;45.45;16.60;;;;;;;15.46;60.02;100828.97;4470294;32;20163;-91
2022/10/29 02:54:38;;;;;;;52.33;21.33;;;;;;;15.63;60.04;100818.78;4470638;32;20156;-92
2022/10/29 02:57:03;;;;;;;59.78;26.90;;;;;;;15.58;60.03;100817.19;4471642;32;20179;-93
2022/10/29 02:59:29;;;;;;;56.97;24.02;;;;;;;15.54;60.02;100816.44;4472647;32;20441;-93
2022/10/29 03:01:54;;;;;;;56.05;22.83;;;;;;;15.46;60.02;100815.00;4485546;32;26202;-94
2022/10/29 03:04:20;;;;;;;63.60;21.85;;;;;;;15.59;60.02;100811.91;4486205;32;20100;-95
2022/10/29 03:06:45;;;;;;;56.90;21.15;;;;;;;15.65;60.03;100806.47;4473079;32;20224;-94
2022/10/29 03:09:10;;;;;;;51.80;18.75;;;;;;;15.59;60.03;100817.16;4472928;32;20169;-94
2022/10/29 03:11:36;;;;;;;49.78;16.58;;;;;;;15.39;60.01;100817.00;4485635;32;20144;-94
2022/10/29 03:14:01;;;;;;;53.15;19.30;;;;;;;15.43;60.02;100820.37;4473013;32;20192;-94
2022/10/29 03:16:26;;;;;;;79.90;32.90;;;;;;;15.28;60.02;100817.34;4472577;32;20156;-91
2022/10/29 03:18:52;;;;;;;69.07;24.85;;;;;;;15.25;60.01;100827.94;4470947;32;25552;-92
2022/10/29 03:21:17;;;;;;;78.15;26.25;;;;;;;15.38;60.02;100831.03;4483965;32;26538;-90
2022/10/29 03:23:43;;;;;;;57.85;22.33;;;;;;;15.51;60.03;100810.44;4471220;32;23971;-92
2022/10/29 03:26:09;;;;;;;56.65;21.17;;;;;;;15.55;60.02;100810.28;4470683;32;20173;-93
2022/10/29 03:28:34;;;;;;;52.20;18.52;;;;;;;15.54;60.02;100820.81;4471758;31;20195;-93
2022/10/29 03:31:00;;;;;;;55.00;21.10;;;;;;;15.43;60.02;100808.09;4472313;32;20144;-93
2022/10/29 03:33:25;;;;;;;50.55;18.02;;;;;;;15.55;60.02;100807.66;4472308;32;20143;-93
2022/10/29 03:36:01;;;;;;;53.45;20.02;;;;;;;15.50;60.03;100809.59;4472035;32;20207;-93
2022/10/29 03:38:28;;;;;;;52.28;20.15;;;;;;;15.52;60.03;100809.53;4472645;32;20135;-92
2022/10/29 03:40:54;;;;;;;51.35;18.85;;;;;;;15.63;60.04;100804.81;4471454;32;20175;-90
2022/10/29 03:43:19;;;;;;;53.75;18.48;;;;;;;15.51;60.03;100799.94;4482254;32;20096;-91
2022/10/29 03:45:54;;;;;;;48.85;15.50;;;;;;;15.23;60.01;100808.78;4473057;32;20148;-92
2022/10/29 03:48:20;;;;;;;45.12;16.02;;;;;;;15.08;60.00;100821.53;4471425;32;20787;-89
2022/10/29 03:50:55;;;;;;;40.40;15.48;;;;;;;15.39;60.01;100810.88;4471132;32;20153;-90
2022/10/29 03:53:21;;;;;;;38.72;14.60;;;;;;;15.40;60.01;100796.87;4472355;32;20152;-93
2022/10/29 03:55:48;;;;;;;39.85;14.77;;;;;;;15.39;60.02;100819.63;4472445;32;20465;-93
2022/10/29 03:58:13;;;;;;;43.40;13.93;;;;;;;15.59;60.03;100808.44;4472161;31;20140;-95
2022/10/29 04:00:39;;;;;;;34.38;14.10;;;;;;;15.45;60.03;100813.28;4473499;32;20106;-93
2022/10/29 04:03:04;;;;;;;39.03;14.27;;;;;;;15.43;60.02;100807.25;4474764;32;20161;-94
2022/10/29 04:05:30;;;;;;;38.90;15.73;;;;;;;15.28;60.02;100808.62;4474174;32;20168;-93
2022/10/29 04:07:55;;;;;;;44.38;15.82;;;;;;;15.18;60.01;100807.22;4474189;32;20181;-93
2022/10/29 04:10:20;;;;;;;37.10;14.48;;;;;;;15.24;60.01;100810.50;4474344;32;20168;-93
2022/10/29 04:12:46;;;;;;;41.08;14.63;;;;;;;15.10;60.01;100819.72;4473580;32;23244;-94
2022/10/29 04:15:11;;;;;;;47.13;16.08;;;;;;;15.18;60.01;100820.34;4473834;32;21683;-93
2022/10/29 04:17:36;;;;;;;44.83;16.33;;;;;;;15.19;60.01;100822.91;4473881;32;20404;-93
2022/10/29 04:20:02;;;;;;;42.62;15.45;;;;;;;15.17;60.00;100829.13;4474301;32;20137;-93
2022/10/29 04:22:28;;;;;;;41.08;13.70;;;;;;;15.31;60.01;100822.47;4474187;31;20092;-93
2022/10/29 04:24:53;;;;;;;41.33;15.20;;;;;;;15.35;60.02;100828.47;4474321;31;20418;-92
2022/10/29 04:27:18;;;;;;;42.22;15.68;;;;;;;15.27;60.01;100822.66;4474311;32;20128;-92
2022/10/29 04:29:44;;;;;;;34.38;13.30;;;;;;;15.14;60.00;100822.22;4473962;32;20169;-92
2022/10/29 04:32:09;;;;;;;35.33;13.82;;;;;;;15.12;60.01;100818.75;4473737;32;25031;-93
2022/10/29 04:34:35;;;;;;;34.03;12.75;;;;;;;14.95;60.00;100816.72;4473879;32;20156;-93
2022/10/29 04:37:00;;;;;;;32.78;13.50;;;;;;;15.12;60.01;100829.25;4473998;32;20104;-94
2022/10/29 04:39:25;;;;;;;33.90;14.25;;;;;;;15.10;60.01;100828.44;4487120;32;20160;-93
2022/10/29 04:41:51;;;;;;;37.22;14.77;;;;;;;14.95;60.00;100826.34;4473542;32;22707;-94
2022/10/29 04:44:16;;;;;;;29.48;12.32;;;;;;;15.13;60.00;100820.47;4486680;32;26388;-93
2022/10/29 04:46:42;;;;;;;31.10;13.38;;;;;;;14.99;60.00;100817.47;4473860;32;20155;-93
2022/10/29 04:49:07;;;;;;;35.03;13.62;;;;;;;15.04;60.00;100816.41;4473672;32;22483;-94
2022/10/29 04:51:32;;;;;;;38.15;13.98;;;;;;;15.06;60.00;100818.97;4473859;32;20123;-93
2022/10/29 04:53:58;;;;;;;47.40;17.37;;;;;;;15.16;60.00;100806.44;4474206;32;20143;-93
2022/10/29 04:56:23;;;;;;;46.20;17.12;;;;;;;15.28;60.01;100819.13;4473651;32;25235;-93
2022/10/29 04:58:52;;;;;;;47.22;17.00;;;;;;;15.31;60.01;100819.00;4473771;32;20155;-94
2022/10/29 05:01:17;;;;;;;47.65;17.37;;;;;;;15.26;60.01;100828.81;4473687;32;20161;-93
2022/10/29 05:03:42;;;;;;;49.25;16.67;;;;;;;15.18;60.01;100831.69;4473598;32;20108;-93
2022/10/29 05:06:08;;;;;;;44.38;15.93;;;;;;;15.30;60.01;100825.16;4473912;32;20148;-93
2022/10/29 05:08:33;;;;;;;50.47;16.02;;;;;;;15.35;60.02;100821.47;4484698;32;23207;-93
2022/10/29 05:11:05;;;;;;;49.33;16.05;;;;;;;15.23;60.01;100818.41;4474232;32;20145;-93
2022/10/29 05:13:30;;;;;;;45.65;15.65;;;;;;;15.18;60.01;100828.22;4473404;32;20176;-93
2022/10/29 05:15:56;;;;;;;46.72;14.93;;;;;;;15.03;60.01;100819.09;4473661;31;20101;-94
2022/10/29 05:18:21;;;;;;;38.08;14.75;;;;;;;14.99;60.00;100828.81;4474548;32;20140;-93
2022/10/29 05:20:47;;;;;;;43.38;14.45;;;;;;;15.11;60.01;100814.44;4474431;32;20104;-94
2022/10/29 05:23:12;;;;;;;45.28;16.02;;;;;;;15.22;60.01;100806.22;4474539;32;20670;-93
2022/10/29 05:25:38;;;;;;;39.53;14.65;;;;;;;15.07;60.00;100820.69;4474014;32;22968;-94
2022/10/29 05:28:05;;;;;;;54.30;15.27;;;;;;;15.11;60.01;100821.44;4473451;32;20096;-94
2022/10/29 05:30:31;;;;;;;31.75;13.35;;;;;;;15.20;60.01;100813.28;4473420;32;20101;-93
2022/10/29 05:32:56;;;;;;;33.00;13.20;;;;;;;15.28;60.02;100817.34;4473349;32;20433;-94
2022/10/29 05:35:22;;;;;;;43.03;14.50;;;;;;;15.28;60.01;100816.50;4473331;32;20159;-94
2022/10/29 05:37:54;;;;;;;43.95;15.15;;;;;;;15.35;60.02;100823.22;4473366;32;20120;-93
2022/10/29 05:40:22;;;;;;;38.53;14.55;;;;;;;15.15;60.00;100828.31;4473171;32;20073;-94
2022/10/29 05:42:48;;;;;;;38.55;13.02;;;;;;;15.01;59.99;100827.00;4473387;31;20147;-94
2022/10/29 05:45:15;;;;;;;38.42;13.57;;;;;;;15.07;60.00;100822.47;4475018;31;20100;-93
2022/10/29 05:47:40;;;;;;;30.42;12.20;;;;;;;15.04;60.00;100826.03;4473444;31;20114;-93
2022/10/29 05:50:06;;;;;;;31.60;13.15;;;;;;;15.03;60.00;100834.81;4459278;32;34734;-93
2022/10/29 05:52:32;;;;;;;31.65;12.00;;;;;;;14.83;59.99;100827.59;4475303;32;20143;-93
2022/10/29 05:54:57;;;;;;;30.48;13.45;;;;;;;14.92;59.99;100816.84;4476029;32;20214;-93
2022/10/29 05:57:22;;;;;;;36.63;13.15;;;;;;;15.01;60.00;100813.03;4473043;32;20189;-93
2022/10/29 05:59:48;;;;;;;33.97;12.88;;;;;;;14.98;60.00;100818.38;4472846;32;20450;-93
2022/10/29 06:02:13;;;;;;;31.00;12.00;;;;;;;15.03;60.01;100824.31;4473274;32;20154;-93
2022/10/29 06:04:39;;;;;;;31.10;12.82;;;;;;;14.98;60.00;100821.88;4473254;32;20138;-93
2022/10/29 06:07:04;;;;;;;35.65;12.80;;;;;;;15.11;60.01;100813.56;4472819;32;20433;-93
2022/10/29 06:09:29;;;;;;;34.47;13.23;;;;;;;15.08;60.00;100797.94;4472456;32;27547;-94
2022/10/29 06:11:55;;;;;;;37.85;13.68;;;;;;;15.14;60.00;100797.72;4472680;32;20822;-92
2022/10/29 06:14:20;;;;;;;29.08;11.57;;;;;;;15.14;60.00;100803.88;4473167;32;20139;-93
2022/10/29 06:16:46;;;;;;;29.65;12.95;;;;;;;14.99;60.00;100820.09;4472711;32;20465;-93
2022/10/29 06:19:11;;;;;;;32.17;13.45;;;;;;;14.77;59.98;100817.31;4473245;32;20135;-93
2022/10/29 06:21:36;;;;;;;31.85;12.52;;;;;;;14.87;60.00;100828.34;4472652;32;24633;-93
2022/10/29 06:24:02;;;;;;;24.90;11.73;;;;;;;14.96;60.00;100817.59;4471752;32;20193;-93
2022/10/29 06:26:27;;;;;;;24.30;12.13;;;;;;;15.10;60.01;100822.34;4472957;32;20073;-94
2022/10/29 06:28:53;;;;;;;27.33;12.02;;;;;;;15.11;60.01;100834.56;4472941;32;20147;-93
2022/10/29 06:31:18;;;;;;;29.58;11.88;;;;;;;15.01;59.99;100834.00;4489621;32;20124;-94
2022/10/29 06:33:43;;;;;;;26.92;11.38;;;;;;;15.15;60.00;100833.56;4480803;32;25108;-93
2022/10/29 06:36:09;;;;;;;28.00;11.98;;;;;;;15.09;60.00;100828.50;4473279;32;20144;-94
2022/10/29 06:38:34;;;;;;;26.20;11.75;;;;;;;15.12;60.01;100836.25;4472308;32;22222;-95
2022/10/29 06:40:59;;;;;;;25.17;11.68;;;;;;;15.10;60.01;100835.47;4472739;32;20128;-92
2022/10/29 06:43:25;;;;;;;28.17;12.10;;;;;;;15.11;60.01;100839.78;4472189;32;20568;-93
2022/10/29 06:45:50;;;;;;;27.52;12.68;;;;;;;15.07;60.00;100843.44;4472702;32;20156;-93
2022/10/29 06:48:16;;;;;;;27.60;11.98;;;;;;;15.10;60.01;100845.94;4471941;32;26885;-93
2022/10/29 06:50:41;;;;;;;26.85;12.18;;;;;;;15.03;60.00;100850.56;4472348;32;20558;-93
2022/10/29 06:53:08;;;;;;;26.67;12.07;;;;;;;15.07;60.00;100846.06;4472504;32;22174;-93
2022/10/29 06:55:34;;;;;;;27.10;11.75;;;;;;;15.12;60.01;100838.88;4473117;32;20095;-94
2022/10/29 06:58:01;;;;;;;23.30;11.45;;;;;;;15.20;60.01;100824.63;4472249;32;20127;-94
2022/10/29 07:00:27;;;;;;;25.58;11.12;;;;;;;15.34;60.02;100813.66;4472867;32;20088;-94
2022/10/29 07:02:53;;;;;;;26.92;11.90;;;;;;;15.33;60.02;100818.03;4472859;32;20442;-93
2022/10/29 07:05:18;;;;;;;25.35;11.30;;;;;;;15.26;60.01;100815.69;4472666;31;20137;-93
2022/10/29 07:07:43;;;;;;;28.98;11.77;;;;;;;15.28;60.01;100829.59;4471784;32;27160;-94
2022/10/29 07:10:09;;;;;;;31.37;12.52;;;;;;;15.47;60.02;100829.84;4472452;32;20154;-93
2022/10/29 07:12:43;;;;;;;35.58;13.18;;;;;;;15.17;60.00;100831.75;4472378;32;20489;-93
2022/10/29 07:15:09;;;;;;;37.30;13.45;;;;;;;15.33;60.02;100832.91;4472500;32;20096;-93
2022/10/29 07:17:34;;;;;;;33.72;14.15;;;;;;;15.40;60.02;100842.31;4472329;31;20119;-94
2022/10/29 07:20:00;;;;;;;36.30;14.15;;;;;;;15.39;60.01;100847.63;4471819;32;32704;-94
2022/10/29 07:22:25;;;;;;;33.03;13.13;;;;;;;15.37;60.02;100845.03;4472441;32;20128;-93
2022/10/29 07:24:51;;;;;;;28.92;13.73;;;;;;;15.47;60.03;100843.81;4471843;32;22318;-94
2022/10/29 07:27:16;;;;;;;30.73;13.90;;;;;;;15.48;60.03;100836.78;4472456;31;20109;-94
2022/10/29 07:29:42;;;;;;;35.83;15.02;;;;;;;15.52;60.02;100839.25;4471608;32;22544;-93
2022/10/29 07:32:07;;;;;;;41.80;16.23;;;;;;;15.51;60.03;100852.44;4472491;32;20158;-94
2022/10/29 07:34:32;;;;;;;34.78;14.90;;;;;;;15.34;60.02;100858.25;4472547;32;20156;-93
2022/10/29 07:36:58;;;;;;;39.97;15.30;;;;;;;15.30;60.01;100875.00;4473839;32;21581;-93
2022/10/29 07:39:23;;;;;;;41.10;16.92;;;;;;;15.40;60.02;100863.31;4473896;32;20160;-93
2022/10/29 07:41:49;;;;;;;34.25;14.70;;;;;;;15.57;60.04;100849.59;4473576;32;25011;-94
2022/10/29 07:44:14;;;;;;;35.55;14.32;;;;;;;15.69;60.03;100837.84;4473959;32;20158;-93
2022/10/29 07:46:39;;;;;;;39.30;15.65;;;;;;;15.80;60.05;100833.03;4473299;32;20378;-94
2022/10/29 07:49:05;;;;;;;36.40;16.37;;;;;;;15.55;60.02;100844.38;4487230;32;20148;-94
2022/10/29 07:51:30;;;;;;;37.88;15.32;;;;;;;15.32;60.01;100847.81;4473741;32;20120;-94
2022/10/29 07:53:55;;;;;;;39.25;15.35;;;;;;;15.42;60.02;100843.13;4474078;32;20338;-94
2022/10/29 07:56:21;;;;;;;35.53;14.55;;;;;;;15.51;60.03;100839.31;4481565;32;27372;-94
2022/10/29 07:58:46;;;;;;;42.25;16.50;;;;;;;15.78;60.03;100837.50;4491211;32;20442;-94
2022/10/29 08:01:12;;;;;;;38.95;16.00;;;;;;;15.80;60.04;100825.16;4473964;32;20151;-94
2022/10/29 08:03:37;;;;;;;39.72;16.98;;;;;;;15.84;60.04;100829.38;4473861;32;20116;-94
2022/10/29 08:06:03;;;;;;;43.50;15.85;;;;;;;15.71;60.04;100836.00;4474277;32;20104;-93
2022/10/29 08:08:29;;;;;;;40.88;15.45;;;;;;;15.70;60.04;100861.41;4474138;31;20131;-94
2022/10/29 08:10:58;;;;;;;37.25;17.05;;;;;;;15.82;60.04;100849.59;4474416;31;20109;-93
2022/10/29 08:13:24;;;;;;;38.47;16.65;;;;;;;15.98;60.05;100835.00;4474160;31;20061;-93
2022/10/29 08:15:49;;;;;;;45.92;18.80;;;;;;;15.86;60.04;100835.47;4473972;32;20140;-93
2022/10/29 08:18:15;;;;;;;44.33;19.10;;;;;;;15.99;60.05;100849.00;4473366;32;21323;-94
2022/10/29 08:20:41;;;;;;;47.00;18.50;;;;;;;15.97;60.05;100841.19;4473869;32;20142;-94
2022/10/29 08:23:06;;;;;;;43.53;18.85;;;;;;;15.90;60.04;100850.19;4474079;32;20152;-94
2022/10/29 08:25:31;;;;;;;44.03;18.45;;;;;;;15.83;60.04;100832.94;4473949;32;20168;-94
2022/10/29 08:28:01;;;;;;;48.35;18.45;;;;;;;15.76;60.04;100831.44;4473259;32;24212;-93
2022/10/29 08:30:26;;;;;;;42.03;19.27;;;;;;;15.83;60.04;100830.31;4473992;32;20116;-96
2022/10/29 08:32:52;;;;;;;48.53;18.85;;;;;;;15.89;60.05;100830.97;4473982;32;20204;-93
2022/10/29 08:35:17;;;;;;;38.58;17.60;;;;;;;16.04;60.06;100837.41;4473341;32;24082;-93
2022/10/29 08:37:43;;;;;;;38.17;16.40;;;;;;;15.81;60.05;100845.25;4473601;32;20167;-93
2022/10/29 08:40:15;;;;;;;38.88;15.85;;;;;;;15.89;60.05;100845.84;4473755;32;20130;-93
2022/10/29 08:43:19;;;;;;;36.83;15.95;;;;;;;15.71;60.04;100863.13;4473910;32;20084;-93
2022/10/29 08:45:45;;;;;;;39.88;17.05;;;;;;;15.78;60.04;100851.47;4469478;32;20096;-94
2022/10/29 08:48:32;;;;;;;38.70;17.58;;;;;;;15.82;60.05;100847.81;4473422;32;20105;-94
2022/10/29 08:50:57;;;;;;;41.55;17.17;;;;;;;15.78;60.04;100840.13;4486846;32;20511;-94
2022/10/29 08:53:26;;;;;;;38.20;16.90;;;;;;;16.03;60.05;100835.69;4486737;32;20104;-93
2022/10/29 08:55:51;;;;;;;38.67;16.12;;;;;;;16.13;60.06;100837.06;4474212;32;20893;-95
2022/10/29 08:58:35;;;;;;;30.95;14.27;;;;;;;16.14;60.06;100833.53;4473083;32;25306;-93
2022/10/29 09:01:00;;;;;;;42.85;17.27;;;;;;;16.15;60.05;100816.84;4486830;31;20068;-93
2022/10/29 09:03:26;;;;;;;42.55;21.33;;;;;;;16.16;60.06;100823.81;4472902;32;29137;-95
2022/10/29 09:06:11;;;;;;;52.65;22.98;;;;;;;16.35;60.07;100817.88;4473886;32;20119;-93
2022/10/29 09:09:00;;;;;;;46.20;19.35;;;;;;;16.14;60.06;100822.16;4486760;32;20120;-94
2022/10/29 09:11:46;;;;;;;43.78;19.27;;;;;;;16.31;60.06;100817.09;4474169;31;20176;-94
2022/10/29 09:14:31;;;;;;;35.65;15.40;;;;;;;16.40;60.08;100829.06;4486742;32;20118;-93
2022/10/29 09:17:01;;;;;;;34.72;15.35;;;;;;;16.40;60.08;100827.28;4486896;32;20105;-94
2022/10/29 09:19:46;;;;;;;;;;;;;;;16.51;60.08;100824.22;4475911;31;20131;-94
2022/10/29 09:22:36;;;;;;;36.28;15.55;;;;;;;16.51;60.08;100825.06;4493377;32;19995;-94
2022/10/29 09:25:19;;;;;;;34.85;15.77;;;;;;;16.66;60.09;100815.78;4475611;32;20164;-95
2022/10/29 09:27:50;;;;;;;32.92;14.95;;;;;;;16.65;60.09;100816.66;4486473;32;20076;-95
2022/10/29 09:30:19;;;;;;;31.67;14.70;;;;;;;16.76;60.09;100822.34;4486630;32;20511;-94
2022/10/29 09:32:53;;;;;;;31.23;13.43;;;;;;;16.74;60.09;100824.19;4473387;31;20112;-94
2022/10/29 09:35:19;;;;;;;28.87;14.13;;;;;;;16.95;60.10;100808.47;4486331;32;20156;-95
2022/10/29 09:37:52;;;;;;;31.20;14.70;;;;;;;16.97;60.10;100818.00;4473558;32;20092;-94
2022/10/29 09:40:31;;;;;;;32.83;15.45;;;;;;;16.86;60.10;100823.72;4473997;32;20164;-96
2022/10/29 09:42:58;;;;;;;28.98;13.85;;;;;;;17.16;60.12;100825.97;4486732;32;20108;-95
2022/10/29 09:45:29;;;;;;;34.53;15.15;;;;;;;17.17;60.12;100827.69;4473810;32;20112;-94
2022/10/29 09:48:04;;;;;;;36.70;16.08;;;;;;;17.21;60.12;100826.63;4473756;32;20084;-94
2022/10/29 09:50:53;;;;;;;43.85;16.85;;;;;;;17.21;60.11;100816.13;4474059;32;20113;-94
2022/10/29 09:53:18;;;;;;;41.42;19.73;;;;;;;17.19;60.11;100794.28;4486958;31;20100;-94
2022/10/29 09:55:44;;;;;;;42.35;17.48;;;;;;;17.15;60.11;100795.34;4473586;32;20144;-94
2022/10/29 09:58:17;;;;;;;35.60;17.12;;;;;;;17.08;60.10;100786.84;4473320;32;20105;-94
2022/10/29 10:00:42;;;;;;;32.78;16.40;;;;;;;17.05;60.11;100799.28;4473658;31;20128;-95
2022/10/29 10:03:15;;;;;;;38.10;17.08;;;;;;;16.98;60.10;100800.44;4473246;32;20921;-95
2022/10/29 10:06:09;;;;;;;39.53;18.33;;;;;;;16.99;60.10;100797.75;4473588;32;20415;-94
2022/10/29 10:08:54;;;;;;;41.65;18.08;;;;;;;16.75;60.09;100804.88;4474644;32;20697;-94
2022/10/29 10:11:19;;;;;;;40.42;17.33;;;;;;;16.70;60.09;100804.22;4488721;31;20131;-95
2022/10/29 10:13:58;;;;;;;41.55;18.90;;;;;;;16.94;60.10;100804.97;4460350;32;20116;-94
2022/10/29 10:16:28;;;;;;;41.83;17.65;;;;;;;16.87;60.10;100809.63;4473362;32;20118;-95
2022/10/29 10:18:54;;;;;;;37.03;17.02;;;;;;;16.66;60.09;100794.75;4473614;31;20068;-94
2022/10/29 10:21:30;;;;;;;38.20;16.87;;;;;;;16.75;60.09;100804.88;4473446;32;20126;-94
2022/10/29 10:23:59;;;;;;;37.75;17.35;;;;;;;16.61;60.08;100799.31;4473381;32;20808;-94
2022/10/29 10:26:43;;;;;;;34.30;15.32;;;;;;;16.68;60.09;100792.91;4473781;31;20108;-95
2022/10/29 10:29:21;;;;;;;32.05;16.12;;;;;;;16.53;60.08;100788.22;4473951;31;20096;-94
2022/10/29 10:31:47;;;;;;;33.47;16.08;;;;;;;16.60;60.08;100784.44;4473668;32;20468;-94
2022/10/29 10:34:16;;;;;;;30.25;15.25;;;;;;;16.63;60.08;100783.47;4486261;32;20139;-94
2022/10/29 10:36:44;;;;;;;32.05;15.35;;;;;;;16.74;60.09;100778.63;4486012;32;20092;-94
2022/10/29 10:39:20;;;;;;;35.58;17.50;;;;;;;16.64;60.09;100788.66;4473430;32;20119;-94
2022/10/29 10:41:45;;;;;;;34.05;16.12;;;;;;;16.69;60.09;100788.50;4487973;31;20165;-95
2022/10/29 10:44:11;;;;;;;33.03;16.58;;;;;;;16.70;60.10;100783.19;4481948;32;20778;-94
2022/10/29 10:46:37;;;;;;;36.58;16.40;;;;;;;16.86;60.10;100780.78;4478597;32;28821;-94
2022/10/29 10:49:31;;;;;;;34.47;17.73;;;;;;;16.97;60.11;100777.69;4473676;31;20453;-94
2022/10/29 10:51:57;;;;;;;34.30;15.20;;;;;;;17.12;60.11;100766.53;4473420;31;20182;-95
2022/10/29 10:54:40;;;;;;;39.08;17.60;;;;;;;17.05;60.11;100767.72;4473168;32;20188;-94
2022/10/29 10:57:09;;;;;;;35.72;16.00;;;;;;;16.95;60.10;100766.37;4473257;32;20096;-94
2022/10/29 10:59:51;;;;;;;36.33;16.25;;;;;;;17.02;60.11;100760.78;4485984;32;20459;-95
2022/10/29 11:02:27;;;;;;;36.22;16.87;;;;;;;17.15;60.12;100767.25;4487266;31;20112;-94
2022/10/29 11:04:58;;;;;;;33.47;16.75;;;;;;;16.93;60.09;100763.81;4473262;32;20108;-94
2022/10/29 11:07:24;;;;;;;37.97;17.37;;;;;;;17.13;60.11;100765.59;4472949;32;20108;-95
2022/10/29 11:09:49;;;;;;;39.10;17.83;;;;;;;16.96;60.11;100760.19;4472086;32;20153;-95
2022/10/29 11:12:30;;;;;;;39.65;18.75;;;;;;;16.98;60.10;100753.09;4472386;32;20109;-94
2022/10/29 11:15:03;;;;;;;39.47;18.00;;;;;;;16.73;60.09;100748.87;4473875;31;20163;-93
2022/10/29 11:17:32;;;;;;;32.67;16.52;;;;;;;16.93;60.11;100750.66;4473059;32;20114;-93